createdAt,value
2019-05-18T00:01:21.032Z,29.30
2019-05-18T00:03:49.844Z,25.77
2019-05-18T00:06:18.612Z,23.77
2019-05-18T00:08:47.330Z,25.67
2019-05-18T00:11:16.017Z,24.47
2019-05-18T00:13:45.265Z,24.90
2019-05-18T00:16:14.007Z,25.63
2019-05-18T00:18:42.759Z,25.17
2019-05-18T00:21:11.520Z,28.40
2019-05-18T00:23:40.307Z,24.97
2019-05-18T00:26:09.031Z,23.13
2019-05-18T00:28:37.818Z,23.57
2019-05-18T00:31:06.570Z,25.97
2019-05-18T00:33:35.870Z,24.03
2019-05-18T00:36:04.881Z,20.83
2019-05-18T00:38:33.987Z,23.50
2019-05-18T00:41:02.707Z,23.43
2019-05-18T00:43:31.517Z,23.43
2019-05-18T00:46:00.275Z,23.60
2019-05-18T00:48:29.019Z,22.17
2019-05-18T00:50:57.995Z,25.13
2019-05-18T00:53:26.755Z,23.83
2019-05-18T00:55:55.477Z,28.87
2019-05-18T00:58:24.199Z,23.63
2019-05-18T01:00:53.004Z,23.77
2019-05-18T01:03:21.841Z,26.10
2019-05-18T01:05:50.649Z,21.87
2019-05-18T01:08:19.489Z,24.90
2019-05-18T01:10:48.312Z,23.00
2019-05-18T01:13:17.073Z,23.67
2019-05-18T01:15:45.842Z,23.40
2019-05-18T01:18:14.842Z,22.70
2019-05-18T01:20:44.321Z,22.93
2019-05-18T01:23:13.047Z,24.97
2019-05-18T01:25:41.884Z,27.03
2019-05-18T01:28:10.680Z,23.93
2019-05-18T01:30:39.533Z,23.33
2019-05-18T01:33:08.274Z,26.40
2019-05-18T01:35:37.099Z,25.87
2019-05-18T01:38:05.944Z,21.80
2019-05-18T01:40:34.674Z,22.80
2019-05-18T01:43:03.816Z,22.53
2019-05-18T01:45:32.543Z,25.17
2019-05-18T01:48:13.167Z,29.07
2019-05-18T01:50:32.060Z,24.87
2019-05-18T01:53:01.103Z,21.00
2019-05-18T01:55:29.842Z,23.10
2019-05-18T01:57:58.623Z,23.07
2019-05-18T02:00:27.419Z,21.90
2019-05-18T02:02:56.179Z,21.30
2019-05-18T02:05:24.916Z,25.03
2019-05-18T02:07:53.650Z,25.10
2019-05-18T02:10:22.460Z,25.57
2019-05-18T02:12:51.234Z,27.90
2019-05-18T02:15:20.638Z,24.40
2019-05-18T02:17:49.399Z,25.60
2019-05-18T02:20:18.551Z,24.50
2019-05-18T02:22:47.383Z,29.37
2019-05-18T02:25:16.486Z,22.37
2019-05-18T02:27:45.223Z,22.10
2019-05-18T02:30:17.187Z,28.80
2019-05-18T02:32:44.757Z,26.93
2019-05-18T02:35:13.792Z,22.73
2019-05-18T02:37:42.637Z,23.60
2019-05-18T02:40:12.096Z,22.10
2019-05-18T02:42:41.053Z,25.03
2019-05-18T02:45:10.455Z,22.13
2019-05-18T02:47:39.278Z,23.37
2019-05-18T02:50:08.817Z,22.60
2019-05-18T02:52:37.950Z,31.00
2019-05-18T02:55:07.290Z,25.40
2019-05-18T02:57:36.383Z,21.30
2019-05-18T03:00:06.890Z,24.33
2019-05-18T03:02:35.638Z,23.87
2019-05-18T03:05:05.311Z,23.30
2019-05-18T03:07:34.413Z,25.33
2019-05-18T03:10:03.392Z,27.30
2019-05-18T03:12:32.595Z,27.20
2019-05-18T03:15:01.694Z,25.10
2019-05-18T03:17:30.505Z,27.27
2019-05-18T03:19:59.387Z,31.40
2019-05-18T03:22:28.204Z,25.60
2019-05-18T03:24:57.041Z,36.33
2019-05-18T03:27:26.177Z,25.10
2019-05-18T03:29:55.388Z,26.63
2019-05-18T03:32:24.171Z,29.77
2019-05-18T03:34:52.978Z,25.43
2019-05-18T03:37:21.916Z,23.73
2019-05-18T03:39:51.401Z,28.87
2019-05-18T03:42:20.217Z,24.57
2019-05-18T03:44:49.065Z,27.13
2019-05-18T03:47:17.870Z,28.87
2019-05-18T03:49:47.176Z,30.67
2019-05-18T03:52:16.257Z,30.13
2019-05-18T03:54:45.075Z,29.07
2019-05-18T03:57:13.894Z,23.90
2019-05-18T03:59:42.703Z,27.33
2019-05-18T04:02:11.810Z,28.67
2019-05-18T04:04:41.084Z,27.77
2019-05-18T04:07:09.882Z,24.13
2019-05-18T04:09:39.282Z,23.80
2019-05-18T04:12:08.398Z,28.40
2019-05-18T04:14:37.515Z,24.73
2019-05-18T04:17:06.563Z,27.47
2019-05-18T04:19:46.160Z,27.40
2019-05-18T04:22:06.786Z,23.10
2019-05-18T04:24:35.757Z,27.23
2019-05-18T04:27:04.627Z,23.73
2019-05-18T04:29:34.012Z,22.83
2019-05-18T04:32:03.365Z,24.10
2019-05-18T04:34:32.245Z,24.33
2019-05-18T04:37:01.086Z,24.90
2019-05-18T04:39:30.112Z,25.53
2019-05-18T04:41:59.460Z,24.57
2019-05-18T04:44:28.507Z,24.63
2019-05-18T04:46:57.697Z,26.67
2019-05-18T04:49:27.367Z,24.17
2019-05-18T04:51:56.236Z,31.60
2019-05-18T04:54:25.024Z,29.23
2019-05-18T04:56:53.816Z,25.20
2019-05-18T04:59:22.917Z,26.87
2019-05-18T05:01:51.765Z,25.50
2019-05-18T05:04:20.779Z,26.17
2019-05-18T05:06:49.533Z,26.33
2019-05-18T05:09:18.638Z,25.33
2019-05-18T05:11:47.403Z,28.17
2019-05-18T05:14:16.647Z,28.27
2019-05-18T05:16:45.416Z,27.30
2019-05-18T05:19:14.193Z,25.53
2019-05-18T05:21:43.304Z,27.37
2019-05-18T05:24:12.023Z,25.80
2019-05-18T05:26:40.773Z,30.27
2019-05-18T05:29:09.502Z,44.87
2019-05-18T05:31:38.412Z,27.80
2019-05-18T05:34:07.176Z,27.97
2019-05-18T05:36:35.894Z,28.80
2019-05-18T05:39:06.840Z,28.43
2019-05-18T05:41:35.667Z,27.00
2019-05-18T05:44:04.543Z,28.63
2019-05-18T05:46:33.344Z,30.43
2019-05-18T05:49:02.420Z,28.57
2019-05-18T05:51:31.239Z,28.17
2019-05-18T05:53:59.935Z,28.43
2019-05-18T05:56:28.672Z,28.27
2019-05-18T05:58:57.561Z,26.77
2019-05-18T06:01:26.592Z,28.03
2019-05-18T06:03:55.446Z,29.07
2019-05-18T06:06:24.142Z,29.93
2019-05-18T06:08:53.116Z,30.17
2019-05-18T06:11:22.050Z,31.93
2019-05-18T06:13:50.831Z,29.10
2019-05-18T06:16:19.520Z,29.07
2019-05-18T06:18:48.247Z,29.93
2019-05-18T06:21:17.335Z,29.67
2019-05-18T06:23:46.088Z,28.50
2019-05-18T06:26:14.873Z,28.80
2019-05-18T06:28:43.637Z,28.90
2019-05-18T06:31:12.371Z,33.63
2019-05-18T06:33:41.279Z,29.63
2019-05-18T06:36:10.702Z,29.50
2019-05-18T06:38:39.958Z,31.80
2019-05-18T06:41:08.995Z,29.27
2019-05-18T06:43:37.753Z,32.40
2019-05-18T06:46:06.480Z,30.30
2019-05-18T06:48:35.280Z,30.87
2019-05-18T06:51:07.317Z,31.47
2019-05-18T06:53:35.284Z,31.47
2019-05-18T06:56:04.593Z,30.17
2019-05-18T06:58:33.895Z,29.17
2019-05-18T07:01:02.629Z,32.60
2019-05-18T07:03:31.708Z,29.00
2019-05-18T07:06:00.493Z,29.33
2019-05-18T07:08:29.324Z,31.50
2019-05-18T07:10:58.064Z,31.23
2019-05-18T07:13:26.941Z,31.30
2019-05-18T07:15:55.728Z,41.23
2019-05-18T07:18:24.871Z,31.30
2019-05-18T07:20:53.587Z,31.00
2019-05-18T07:23:22.656Z,31.00
2019-05-18T07:25:51.471Z,32.37
2019-05-18T07:28:20.249Z,30.90
2019-05-18T07:30:48.985Z,29.97
2019-05-18T07:33:17.774Z,31.03
2019-05-18T07:35:46.622Z,30.87
2019-05-18T07:38:15.390Z,29.47
2019-05-18T07:40:44.424Z,31.23
2019-05-18T07:43:13.246Z,32.40
2019-05-18T07:45:42.068Z,30.27
2019-05-18T07:48:10.852Z,32.10
2019-05-18T07:50:40.013Z,30.87
2019-05-18T07:53:08.865Z,31.87
2019-05-18T07:55:37.610Z,38.23
2019-05-18T07:58:08.811Z,30.53
2019-05-18T08:00:37.548Z,30.17
2019-05-18T08:03:06.316Z,32.13
2019-05-18T08:05:35.353Z,31.63
2019-05-18T08:08:04.273Z,32.67
2019-05-18T08:10:37.565Z,31.70
2019-05-18T08:13:07.415Z,30.80
2019-05-18T08:15:36.352Z,31.27
2019-05-18T08:18:05.588Z,31.90
2019-05-18T08:20:34.377Z,32.97
2019-05-18T08:23:03.098Z,29.97
2019-05-18T08:25:31.853Z,32.03
2019-05-18T08:28:00.550Z,32.47
2019-05-18T08:30:29.318Z,32.47
2019-05-18T08:32:58.417Z,32.80
2019-05-18T08:35:27.491Z,31.43
2019-05-18T08:37:56.398Z,34.10
2019-05-18T08:40:25.195Z,31.43
2019-05-18T08:42:54.145Z,33.07
2019-05-18T08:45:23.307Z,31.80
2019-05-18T08:47:52.076Z,33.30
2019-05-18T08:50:20.857Z,33.73
2019-05-18T08:52:49.708Z,32.63
2019-05-18T08:55:19.323Z,31.17
2019-05-18T08:57:48.343Z,31.50
2019-05-18T09:00:18.751Z,30.70
2019-05-18T09:02:47.665Z,31.20
2019-05-18T09:05:16.744Z,31.73
2019-05-18T09:07:46.146Z,32.13
2019-05-18T09:10:15.506Z,31.43
2019-05-18T09:12:44.263Z,31.40
2019-05-18T09:15:13.719Z,31.10
2019-05-18T09:17:42.803Z,29.60
2019-05-18T09:20:11.800Z,29.77
2019-05-18T09:22:40.786Z,31.10
2019-05-18T09:25:09.937Z,30.30
2019-05-18T09:27:39.043Z,32.63
2019-05-18T09:30:08.602Z,32.87
2019-05-18T09:32:38.070Z,34.30
2019-05-18T09:35:07.105Z,31.10
2019-05-18T09:37:36.004Z,33.93
2019-05-18T09:40:05.624Z,33.43
2019-05-18T09:42:34.717Z,30.53
2019-05-18T09:45:03.589Z,34.17
2019-05-18T09:47:32.717Z,32.17
2019-05-18T09:50:01.596Z,31.87
2019-05-18T09:52:44.109Z,33.37
2019-05-18T09:55:01.342Z,32.07
2019-05-18T09:57:30.122Z,31.00
2019-05-18T09:59:58.878Z,30.67
2019-05-18T10:02:27.706Z,32.40
2019-05-18T10:04:56.760Z,31.83
2019-05-18T10:07:25.535Z,32.07
2019-05-18T10:09:54.313Z,32.80
2019-05-18T10:12:24.734Z,31.73
2019-05-18T10:14:53.653Z,32.60
2019-05-18T10:17:22.783Z,32.20
2019-05-18T10:19:51.892Z,31.40
2019-05-18T10:22:20.840Z,35.07
2019-05-18T10:24:50.646Z,32.53
2019-05-18T10:27:19.667Z,34.50
2019-05-18T10:29:48.460Z,31.87
2019-05-18T10:32:24.076Z,32.10
2019-05-18T10:34:52.932Z,29.80
2019-05-18T10:37:21.733Z,31.37
2019-05-18T10:39:50.792Z,32.33
2019-05-18T10:42:19.515Z,32.23
2019-05-18T10:44:48.372Z,32.40
2019-05-18T10:47:17.164Z,31.37
2019-05-18T10:49:45.953Z,32.57
2019-05-18T10:52:15.077Z,30.13
2019-05-18T10:54:43.931Z,32.40
2019-05-18T10:57:12.802Z,31.10
2019-05-18T10:59:41.639Z,29.87
2019-05-18T11:02:10.423Z,33.27
2019-05-18T11:04:39.347Z,30.40
2019-05-18T11:07:08.708Z,31.20
2019-05-18T11:09:37.611Z,31.23
2019-05-18T11:12:06.563Z,31.93
2019-05-18T11:14:35.770Z,30.47
2019-05-18T11:17:04.592Z,30.97
2019-05-18T11:19:33.389Z,30.60
2019-05-18T11:22:02.263Z,30.83
2019-05-18T11:24:31.283Z,31.70
2019-05-18T11:27:00.113Z,31.70
2019-05-18T11:29:28.860Z,31.07
2019-05-18T11:31:57.739Z,31.10
2019-05-18T11:34:26.545Z,32.00
2019-05-18T11:36:55.619Z,30.53
2019-05-18T11:39:24.364Z,32.90
2019-05-18T11:41:53.188Z,30.40
2019-05-18T11:44:22.031Z,30.40
2019-05-18T11:46:50.913Z,31.30
2019-05-18T11:49:19.763Z,29.97
2019-05-18T11:51:48.525Z,29.80
2019-05-18T11:54:17.835Z,32.10
2019-05-18T11:56:47.049Z,37.17
2019-05-18T11:59:16.074Z,30.27
2019-05-18T12:01:44.942Z,30.20
2019-05-18T12:04:14.303Z,31.53
2019-05-18T12:06:43.182Z,32.37
2019-05-18T12:09:11.942Z,30.03
2019-05-18T12:11:40.938Z,31.40
2019-05-18T12:14:09.686Z,30.40
2019-05-18T12:16:38.486Z,29.93
2019-05-18T12:19:07.252Z,30.20
2019-05-18T12:21:36.084Z,31.90
2019-05-18T12:24:14.613Z,31.40
2019-05-18T12:26:35.485Z,30.80
2019-05-18T12:29:04.476Z,31.50
2019-05-18T12:31:33.240Z,32.90
2019-05-18T12:34:01.954Z,32.17
2019-05-18T12:36:30.701Z,31.70
2019-05-18T12:38:59.747Z,32.53
2019-05-18T12:41:31.536Z,31.37
2019-05-18T12:44:00.310Z,33.00
2019-05-18T12:46:29.389Z,31.60
2019-05-18T12:48:58.195Z,31.80
2019-05-18T12:51:27.045Z,30.80
2019-05-18T12:53:55.852Z,32.53
2019-05-18T12:56:25.711Z,32.83
2019-05-18T12:58:54.503Z,30.03
2019-05-18T13:01:23.312Z,32.67
2019-05-18T13:03:52.669Z,32.60
2019-05-18T13:06:21.384Z,32.27
2019-05-18T13:08:50.212Z,33.30
2019-05-18T13:11:19.431Z,31.60
2019-05-18T13:13:48.227Z,31.00
2019-05-18T13:16:19.256Z,31.13
2019-05-18T13:18:48.160Z,34.33
2019-05-18T13:21:16.975Z,31.60
2019-05-18T13:23:46.096Z,33.50
2019-05-18T13:26:14.818Z,32.67
2019-05-18T13:28:43.612Z,31.93
2019-05-18T13:31:12.435Z,32.83
2019-05-18T13:33:41.207Z,33.00
2019-05-18T13:36:10.080Z,33.80
2019-05-18T13:38:39.117Z,32.33
2019-05-18T13:41:07.933Z,31.60
2019-05-18T13:43:36.704Z,32.50
2019-05-18T13:46:05.468Z,34.93
2019-05-18T13:48:35.488Z,32.23
2019-05-18T13:51:04.887Z,33.13
2019-05-18T13:53:34.133Z,34.73
2019-05-18T13:56:02.979Z,33.30
2019-05-18T13:58:31.746Z,35.00
2019-05-18T14:01:00.796Z,33.00
2019-05-18T14:03:29.582Z,34.40
2019-05-18T14:05:59.021Z,32.90
2019-05-18T14:08:27.881Z,32.10
2019-05-18T14:10:56.608Z,33.90
2019-05-18T14:13:25.693Z,32.00
2019-05-18T14:15:54.678Z,33.37
2019-05-18T14:18:23.436Z,33.20
2019-05-18T14:20:52.580Z,34.43
2019-05-18T14:23:21.330Z,33.17
2019-05-18T14:25:50.346Z,34.17
2019-05-18T14:28:19.127Z,36.17
2019-05-18T14:30:48.002Z,35.00
2019-05-18T14:33:16.735Z,34.00
2019-05-18T14:35:46.249Z,32.90
2019-05-18T14:38:15.757Z,33.53
2019-05-18T14:40:44.488Z,34.90
2019-05-18T14:43:13.237Z,34.43
2019-05-18T14:45:42.419Z,33.67
2019-05-18T14:48:11.229Z,32.53
2019-05-18T14:50:40.273Z,36.23
2019-05-18T14:53:09.071Z,35.20
2019-05-18T14:55:57.132Z,34.90
2019-05-18T14:58:26.215Z,35.57
2019-05-18T15:00:55.371Z,33.43
2019-05-18T15:03:24.407Z,34.90
2019-05-18T15:05:53.273Z,33.93
2019-05-18T15:08:22.568Z,38.90
2019-05-18T15:10:51.335Z,36.47
2019-05-18T15:13:20.105Z,36.77
2019-05-18T15:15:48.875Z,33.10
2019-05-18T15:18:18.372Z,33.43
2019-05-18T15:20:47.199Z,35.17
2019-05-18T15:23:16.007Z,33.80
2019-05-18T15:25:50.804Z,36.50
2019-05-18T15:28:15.675Z,33.97
2019-05-18T15:30:44.446Z,34.60
2019-05-18T15:33:13.282Z,35.73
2019-05-18T15:35:42.179Z,35.20
2019-05-18T15:38:11.072Z,36.73
2019-05-18T15:40:39.818Z,36.10
2019-05-18T15:43:08.682Z,35.67
2019-05-18T15:45:37.603Z,36.93
2019-05-18T15:48:06.376Z,36.53
2019-05-18T15:50:35.254Z,40.43
2019-05-18T15:53:03.987Z,36.67
2019-05-18T15:55:33.124Z,38.27
2019-05-18T15:58:02.051Z,36.23
2019-05-18T16:00:31.238Z,37.40
2019-05-18T16:03:00.279Z,36.60
2019-05-18T16:05:28.989Z,39.77
2019-05-18T16:07:57.767Z,36.30
2019-05-18T16:10:27.044Z,36.10
2019-05-18T16:12:55.964Z,34.70
2019-05-18T16:15:24.864Z,36.90
2019-05-18T16:17:53.737Z,36.57
2019-05-18T16:20:22.678Z,37.73
2019-05-18T16:22:51.555Z,33.77
2019-05-18T16:25:20.482Z,35.50
2019-05-18T16:27:49.261Z,33.97
2019-05-18T16:30:18.562Z,36.50
2019-05-18T16:32:47.444Z,36.13
2019-05-18T16:35:16.503Z,35.73
2019-05-18T16:37:45.360Z,35.23
2019-05-18T16:40:15.452Z,34.27
2019-05-18T16:42:46.455Z,33.53
2019-05-18T16:45:16.751Z,34.10
2019-05-18T16:47:45.541Z,34.70
2019-05-18T16:50:14.982Z,34.50
2019-05-18T16:52:43.941Z,36.33
2019-05-18T16:55:13.323Z,37.03
2019-05-18T16:57:42.163Z,37.17
2019-05-18T17:00:15.697Z,34.10
2019-05-18T17:02:42.787Z,36.77
2019-05-18T17:05:13.612Z,36.37
2019-05-18T17:07:42.462Z,35.57
2019-05-18T17:10:11.674Z,37.03
2019-05-18T17:12:41.194Z,33.33
2019-05-18T17:15:10.500Z,35.10
2019-05-18T17:17:39.365Z,33.43
2019-05-18T17:20:08.959Z,36.80
2019-05-18T17:22:38.140Z,34.20
2019-05-18T17:25:07.608Z,33.80
2019-05-18T17:27:36.520Z,34.27
2019-05-18T17:30:06.026Z,36.60
2019-05-18T17:32:35.319Z,35.57
2019-05-18T17:35:04.536Z,36.60
2019-05-18T17:37:33.696Z,34.07
2019-05-18T17:40:02.831Z,40.80
2019-05-18T17:42:31.932Z,34.87
2019-05-18T17:45:01.198Z,35.67
2019-05-18T17:47:30.074Z,36.07
2019-05-18T17:49:59.194Z,36.83
2019-05-18T17:52:28.695Z,37.13
2019-05-18T17:54:57.599Z,35.70
2019-05-18T17:57:26.775Z,38.57
2019-05-18T17:59:55.936Z,38.37
2019-05-18T18:02:25.939Z,36.93
2019-05-18T18:04:55.636Z,36.13
2019-05-18T18:07:24.943Z,36.90
2019-05-18T18:09:54.295Z,36.83
2019-05-18T18:12:24.035Z,36.13
2019-05-18T18:14:53.851Z,36.13
2019-05-18T18:17:22.691Z,35.37
2019-05-18T18:19:51.737Z,35.47
2019-05-18T18:22:23.892Z,35.10
2019-05-18T18:24:52.924Z,34.93
2019-05-18T18:27:25.387Z,34.30
2019-05-18T18:29:53.130Z,37.83
2019-05-18T18:32:22.904Z,36.07
2019-05-18T18:34:54.407Z,36.10
2019-05-18T18:37:24.405Z,36.27
2019-05-18T18:39:54.769Z,36.63
2019-05-18T18:42:23.604Z,37.90
2019-05-18T18:44:52.551Z,35.73
2019-05-18T18:47:21.608Z,37.17
2019-05-18T18:49:50.902Z,36.73
2019-05-18T18:52:19.827Z,36.50
2019-05-18T18:54:48.714Z,36.93
2019-05-18T18:57:17.633Z,37.70
2019-05-18T18:59:47.176Z,36.60
2019-05-18T19:02:17.112Z,39.37
2019-05-18T19:04:46.543Z,45.43
2019-05-18T19:07:15.623Z,41.17
2019-05-18T19:09:44.578Z,44.73
2019-05-18T19:12:13.514Z,40.60
2019-05-18T19:14:43.963Z,39.70
2019-05-18T19:17:13.146Z,39.10
2019-05-18T19:19:42.325Z,42.73
2019-05-18T19:22:11.530Z,39.53
2019-05-18T19:24:40.381Z,39.57
2019-05-18T19:27:09.426Z,39.27
2019-05-18T19:29:38.444Z,40.00
2019-05-18T19:32:07.662Z,44.63
2019-05-18T19:34:36.759Z,44.97
2019-05-18T19:37:05.536Z,55.80
2019-05-18T19:39:34.322Z,47.80
2019-05-18T19:42:04.385Z,48.90
2019-05-18T19:44:33.664Z,49.20
2019-05-18T19:47:02.509Z,44.83
2019-05-18T19:49:31.447Z,41.03
2019-05-18T19:52:00.746Z,46.37
2019-05-18T19:54:29.712Z,46.53
2019-05-18T19:56:59.723Z,50.30
2019-05-18T19:59:28.623Z,45.77
2019-05-18T20:02:01.754Z,44.33
2019-05-18T20:04:30.984Z,48.53
2019-05-18T20:07:00.060Z,45.80
2019-05-18T20:09:28.998Z,53.40
2019-05-18T20:11:57.861Z,44.10
2019-05-18T20:14:27.047Z,42.73
2019-05-18T20:16:56.398Z,44.13
2019-05-18T20:19:38.749Z,46.93
2019-05-18T20:21:57.363Z,48.50
2019-05-18T20:24:26.142Z,41.83
2019-05-18T20:26:55.007Z,40.27
2019-05-18T20:29:24.850Z,48.03
2019-05-18T20:31:53.931Z,42.93
2019-05-18T20:34:23.591Z,47.13
2019-05-18T20:36:53.384Z,47.53
2019-05-18T20:39:22.521Z,55.03
2019-05-18T20:41:51.431Z,47.47
2019-05-18T20:44:20.337Z,43.83
2019-05-18T20:46:49.896Z,46.23
2019-05-18T20:49:19.164Z,43.00
2019-05-18T20:51:48.143Z,47.57
2019-05-18T20:54:17.684Z,45.07
2019-05-18T20:56:46.506Z,47.23
2019-05-18T20:59:15.542Z,44.13
2019-05-18T21:01:44.585Z,48.07
2019-05-18T21:04:13.408Z,48.17
2019-05-18T21:06:45.425Z,45.60
2019-05-18T21:09:14.056Z,46.93
2019-05-18T21:11:44.049Z,48.73
2019-05-18T21:14:13.075Z,57.80
2019-05-18T21:16:42.093Z,41.17
2019-05-18T21:19:11.053Z,49.13
2019-05-18T21:22:01.104Z,46.43
2019-05-18T21:24:31.877Z,48.67
2019-05-18T21:27:00.774Z,53.27
2019-05-18T21:29:30.078Z,46.90
2019-05-18T21:31:58.975Z,50.00
2019-05-18T21:34:27.784Z,49.20
2019-05-18T21:36:56.695Z,44.40
2019-05-18T21:39:26.143Z,47.50
2019-05-18T21:41:55.293Z,48.03
2019-05-18T21:44:24.167Z,52.47
2019-05-18T21:46:53.315Z,53.13
2019-05-18T21:49:22.665Z,53.03
2019-05-18T21:51:51.938Z,66.30
2019-05-18T21:54:20.749Z,53.90
2019-05-18T21:56:49.510Z,52.33
2019-05-18T21:59:18.473Z,55.60
2019-05-18T22:01:47.732Z,53.80
2019-05-18T22:04:17.293Z,59.77
2019-05-18T22:06:46.623Z,51.17
2019-05-18T22:09:16.358Z,62.57
2019-05-18T22:11:46.047Z,52.50
2019-05-18T22:14:14.801Z,56.97
2019-05-18T22:16:43.804Z,51.67
2019-05-18T22:19:12.752Z,51.47
2019-05-18T22:21:41.827Z,64.47
2019-05-18T22:24:10.956Z,69.20
2019-05-18T22:26:39.993Z,58.93
2019-05-18T22:29:09.056Z,58.23
2019-05-18T22:31:38.109Z,64.83
2019-05-18T22:34:06.886Z,63.67
2019-05-18T22:36:35.790Z,74.40
2019-05-18T22:39:06.043Z,69.33
2019-05-18T22:41:35.286Z,73.33
2019-05-18T22:44:04.494Z,64.83
2019-05-18T22:46:33.361Z,63.90
2019-05-18T22:49:02.330Z,67.33
2019-05-18T22:51:31.405Z,70.70
2019-05-18T22:54:00.602Z,69.53
2019-05-18T22:56:29.880Z,66.53
2019-05-18T22:58:58.660Z,64.77
2019-05-18T23:01:27.776Z,67.80
2019-05-18T23:03:56.519Z,65.40
2019-05-18T23:06:25.367Z,67.97
2019-05-18T23:08:54.208Z,75.37
2019-05-18T23:11:23.256Z,63.40
2019-05-18T23:13:52.081Z,64.30
2019-05-18T23:16:21.065Z,72.07
2019-05-18T23:18:56.704Z,65.63
2019-05-18T23:21:20.765Z,65.70
2019-05-18T23:23:49.719Z,73.37
2019-05-18T23:26:18.585Z,66.90
2019-05-18T23:28:47.846Z,66.23
2019-05-18T23:31:16.964Z,66.90
2019-05-18T23:33:45.898Z,59.23
2019-05-18T23:36:14.791Z,68.43
2019-05-18T23:38:43.724Z,61.00
2019-05-18T23:41:12.668Z,59.77
2019-05-18T23:43:41.585Z,59.77
2019-05-18T23:46:10.487Z,70.63
2019-05-18T23:48:39.407Z,65.60
2019-05-18T23:51:08.364Z,67.27
2019-05-18T23:53:37.147Z,66.07
2019-05-18T23:56:06.044Z,78.53
2019-05-18T23:58:34.919Z,68.13
